sensor_id;sensor_type;location;lat;lon;timestamp;pressure;altitude;pressure_sealevel;temperature
29423;BMP180;16399;51.686;8.684;2022-12-05T00:00:45;99949.00;;;2.70
29423;BMP180;16399;51.686;8.684;2022-12-05T00:03:49;99947.00;;;2.70
29423;BMP180;16399;51.686;8.684;2022-12-05T00:06:52;99947.00;;;2.70
29423;BMP180;16399;51.686;8.684;2022-12-05T00:09:54;99947.00;;;2.80
29423;BMP180;16399;51.686;8.684;2022-12-05T00:12:56;99939.00;;;2.80
29423;BMP180;16399;51.686;8.684;2022-12-05T00:15:59;99951.00;;;2.80
29423;BMP180;16399;51.686;8.684;2022-12-05T00:19:03;99955.00;;;2.80
29423;BMP180;16399;51.686;8.684;2022-12-05T00:22:05;99949.00;;;2.80
29423;BMP180;16399;51.686;8.684;2022-12-05T00:25:08;99950.00;;;2.80
29423;BMP180;16399;51.686;8.684;2022-12-05T00:28:10;99937.00;;;2.80
29423;BMP180;16399;51.686;8.684;2022-12-05T00:31:15;99945.00;;;2.80
29423;BMP180;16399;51.686;8.684;2022-12-05T00:34:18;99948.00;;;2.80
29423;BMP180;16399;51.686;8.684;2022-12-05T00:37:20;99938.00;;;2.90
29423;BMP180;16399;51.686;8.684;2022-12-05T00:40:23;99940.00;;;2.90
29423;BMP180;16399;51.686;8.684;2022-12-05T00:43:25;99935.00;;;2.90
29423;BMP180;16399;51.686;8.684;2022-12-05T00:46:29;99921.00;;;2.90
29423;BMP180;16399;51.686;8.684;2022-12-05T00:49:32;99915.00;;;2.90
29423;BMP180;16399;51.686;8.684;2022-12-05T00:52:34;99933.00;;;2.90
29423;BMP180;16399;51.686;8.684;2022-12-05T00:55:37;99934.00;;;2.90
29423;BMP180;16399;51.686;8.684;2022-12-05T00:58:39;99924.00;;;2.90
29423;BMP180;16399;51.686;8.684;2022-12-05T01:01:43;99927.00;;;2.90
29423;BMP180;16399;51.686;8.684;2022-12-05T01:04:45;99925.00;;;2.90
29423;BMP180;16399;51.686;8.684;2022-12-05T01:07:48;99927.00;;;2.90
29423;BMP180;16399;51.686;8.684;2022-12-05T01:10:57;99923.00;;;2.90
29423;BMP180;16399;51.686;8.684;2022-12-05T01:13:59;99922.00;;;2.80
29423;BMP180;16399;51.686;8.684;2022-12-05T01:17:02;99913.00;;;2.80
29423;BMP180;16399;51.686;8.684;2022-12-05T01:20:05;99926.00;;;2.80
29423;BMP180;16399;51.686;8.684;2022-12-05T01:23:08;99927.00;;;2.80
29423;BMP180;16399;51.686;8.684;2022-12-05T01:26:12;99923.00;;;2.70
29423;BMP180;16399;51.686;8.684;2022-12-05T01:29:18;99928.00;;;2.80
29423;BMP180;16399;51.686;8.684;2022-12-05T01:32:20;99925.00;;;2.80
29423;BMP180;16399;51.686;8.684;2022-12-05T01:35:22;99915.00;;;2.80
29423;BMP180;16399;51.686;8.684;2022-12-05T01:38:25;99928.00;;;2.80
29423;BMP180;16399;51.686;8.684;2022-12-05T01:41:30;99927.00;;;2.70
29423;BMP180;16399;51.686;8.684;2022-12-05T01:47:38;99939.00;;;2.80
29423;BMP180;16399;51.686;8.684;2022-12-05T01:50:40;99933.00;;;2.80
29423;BMP180;16399;51.686;8.684;2022-12-05T01:53:43;99927.00;;;2.80
29423;BMP180;16399;51.686;8.684;2022-12-05T01:56:49;99930.00;;;2.80
29423;BMP180;16399;51.686;8.684;2022-12-05T01:59:54;99928.00;;;2.80
29423;BMP180;16399;51.686;8.684;2022-12-05T02:02:58;99922.00;;;2.80
29423;BMP180;16399;51.686;8.684;2022-12-05T02:06:02;99942.00;;;2.70
29423;BMP180;16399;51.686;8.684;2022-12-05T02:09:05;99931.00;;;2.70
29423;BMP180;16399;51.686;8.684;2022-12-05T02:12:07;99939.00;;;2.70
29423;BMP180;16399;51.686;8.684;2022-12-05T02:15:35;99940.00;;;2.70
29423;BMP180;16399;51.686;8.684;2022-12-05T02:22:05;99943.00;;;2.70
29423;BMP180;16399;51.686;8.684;2022-12-05T02:28:52;99941.00;;;2.70
29423;BMP180;16399;51.686;8.684;2022-12-05T02:35:29;99952.00;;;2.60
29423;BMP180;16399;51.686;8.684;2022-12-05T02:38:35;99955.00;;;2.60
29423;BMP180;16399;51.686;8.684;2022-12-05T02:42:03;99945.00;;;2.60
29423;BMP180;16399;51.686;8.684;2022-12-05T02:45:07;99935.00;;;2.60
29423;BMP180;16399;51.686;8.684;2022-12-05T02:48:13;99942.00;;;2.60
29423;BMP180;16399;51.686;8.684;2022-12-05T02:51:18;99937.00;;;2.60
29423;BMP180;16399;51.686;8.684;2022-12-05T02:54:26;99946.00;;;2.60
29423;BMP180;16399;51.686;8.684;2022-12-05T02:57:29;99945.00;;;2.60
29423;BMP180;16399;51.686;8.684;2022-12-05T03:00:34;99940.00;;;2.60
29423;BMP180;16399;51.686;8.684;2022-12-05T03:03:37;99941.00;;;2.70
29423;BMP180;16399;51.686;8.684;2022-12-05T03:06:57;99945.00;;;2.70
29423;BMP180;16399;51.686;8.684;2022-12-05T03:10:02;99945.00;;;2.70
29423;BMP180;16399;51.686;8.684;2022-12-05T03:13:18;99940.00;;;2.70
29423;BMP180;16399;51.686;8.684;2022-12-05T03:16:23;99945.00;;;2.70
29423;BMP180;16399;51.686;8.684;2022-12-05T03:19:28;99949.00;;;2.70
29423;BMP180;16399;51.686;8.684;2022-12-05T03:22:34;99960.00;;;2.70
29423;BMP180;16399;51.686;8.684;2022-12-05T03:35:44;99948.00;;;2.70
29423;BMP180;16399;51.686;8.684;2022-12-05T03:39:00;99935.00;;;2.70
29423;BMP180;16399;51.686;8.684;2022-12-05T03:42:12;99944.00;;;2.70
29423;BMP180;16399;51.686;8.684;2022-12-05T03:45:18;99940.00;;;2.70
29423;BMP180;16399;51.686;8.684;2022-12-05T03:51:53;99941.00;;;2.70
29423;BMP180;16399;51.686;8.684;2022-12-05T03:54:58;99947.00;;;2.70
29423;BMP180;16399;51.686;8.684;2022-12-05T03:58:06;99944.00;;;2.70
29423;BMP180;16399;51.686;8.684;2022-12-05T04:01:09;99936.00;;;2.60
29423;BMP180;16399;51.686;8.684;2022-12-05T04:04:38;99942.00;;;2.60
29423;BMP180;16399;51.686;8.684;2022-12-05T04:07:38;99935.00;;;2.50
29423;BMP180;16399;51.686;8.684;2022-12-05T04:10:43;99942.00;;;2.50
29423;BMP180;16399;51.686;8.684;2022-12-05T04:13:54;99952.00;;;2.40
29423;BMP180;16399;51.686;8.684;2022-12-05T04:17:22;99942.00;;;2.40
29423;BMP180;16399;51.686;8.684;2022-12-05T04:20:36;99953.00;;;2.40
29423;BMP180;16399;51.686;8.684;2022-12-05T04:23:53;99959.00;;;2.40
29423;BMP180;16399;51.686;8.684;2022-12-05T04:27:33;99949.00;;;2.40
29423;BMP180;16399;51.686;8.684;2022-12-05T04:33:47;99948.00;;;2.40
29423;BMP180;16399;51.686;8.684;2022-12-05T04:36:57;99948.00;;;2.50
29423;BMP180;16399;51.686;8.684;2022-12-05T04:40:03;99955.00;;;2.50
29423;BMP180;16399;51.686;8.684;2022-12-05T04:43:05;99948.00;;;2.50
29423;BMP180;16399;51.686;8.684;2022-12-05T04:46:10;99948.00;;;2.50
29423;BMP180;16399;51.686;8.684;2022-12-05T04:49:16;99956.00;;;2.50
29423;BMP180;16399;51.686;8.684;2022-12-05T04:52:20;99955.00;;;2.50
29423;BMP180;16399;51.686;8.684;2022-12-05T04:55:24;99955.00;;;2.50
29423;BMP180;16399;51.686;8.684;2022-12-05T04:58:29;99944.00;;;2.60
29423;BMP180;16399;51.686;8.684;2022-12-05T05:01:43;99951.00;;;2.50
29423;BMP180;16399;51.686;8.684;2022-12-05T05:04:47;99950.00;;;2.50
29423;BMP180;16399;51.686;8.684;2022-12-05T05:07:51;99951.00;;;2.50
29423;BMP180;16399;51.686;8.684;2022-12-05T05:14:10;99957.00;;;2.50
29423;BMP180;16399;51.686;8.684;2022-12-05T05:17:13;99957.00;;;2.40
29423;BMP180;16399;51.686;8.684;2022-12-05T05:20:15;99954.00;;;2.40
29423;BMP180;16399;51.686;8.684;2022-12-05T05:23:27;99947.00;;;2.30
29423;BMP180;16399;51.686;8.684;2022-12-05T05:26:31;99954.00;;;2.30
29423;BMP180;16399;51.686;8.684;2022-12-05T05:29:33;99962.00;;;2.20
29423;BMP180;16399;51.686;8.684;2022-12-05T05:32:35;99968.00;;;2.20
29423;BMP180;16399;51.686;8.684;2022-12-05T05:35:38;99962.00;;;2.20
29423;BMP180;16399;51.686;8.684;2022-12-05T05:38:43;99959.00;;;2.20
29423;BMP180;16399;51.686;8.684;2022-12-05T05:41:45;99974.00;;;2.20
29423;BMP180;16399;51.686;8.684;2022-12-05T05:44:48;99968.00;;;2.10
29423;BMP180;16399;51.686;8.684;2022-12-05T05:47:50;99968.00;;;2.10
29423;BMP180;16399;51.686;8.684;2022-12-05T05:50:52;99972.00;;;2.10
29423;BMP180;16399;51.686;8.684;2022-12-05T05:53:56;99968.00;;;2.20
29423;BMP180;16399;51.686;8.684;2022-12-05T05:56:58;99971.00;;;2.10
29423;BMP180;16399;51.686;8.684;2022-12-05T06:00:03;99971.00;;;2.10
29423;BMP180;16399;51.686;8.684;2022-12-05T06:03:05;99990.00;;;2.10
29423;BMP180;16399;51.686;8.684;2022-12-05T06:06:10;99988.00;;;2.10
29423;BMP180;16399;51.686;8.684;2022-12-05T06:09:13;99978.00;;;2.10
29423;BMP180;16399;51.686;8.684;2022-12-05T06:12:15;99989.00;;;2.10
29423;BMP180;16399;51.686;8.684;2022-12-05T06:15:17;99989.00;;;2.00
29423;BMP180;16399;51.686;8.684;2022-12-05T06:18:20;99996.00;;;1.90
29423;BMP180;16399;51.686;8.684;2022-12-05T06:21:22;99997.00;;;1.80
29423;BMP180;16399;51.686;8.684;2022-12-05T06:24:24;100008.00;;;1.70
29423;BMP180;16399;51.686;8.684;2022-12-05T06:27:29;100009.00;;;1.70
29423;BMP180;16399;51.686;8.684;2022-12-05T06:30:31;100010.00;;;1.70
29423;BMP180;16399;51.686;8.684;2022-12-05T06:33:33;100003.00;;;1.60
29423;BMP180;16399;51.686;8.684;2022-12-05T06:36:36;100022.00;;;1.60
29423;BMP180;16399;51.686;8.684;2022-12-05T06:39:38;100019.00;;;1.60
29423;BMP180;16399;51.686;8.684;2022-12-05T06:42:40;100023.00;;;1.50
29423;BMP180;16399;51.686;8.684;2022-12-05T06:45:43;100014.00;;;1.50
29423;BMP180;16399;51.686;8.684;2022-12-05T06:48:45;100020.00;;;1.50
29423;BMP180;16399;51.686;8.684;2022-12-05T06:51:48;100025.00;;;1.50
29423;BMP180;16399;51.686;8.684;2022-12-05T06:54:50;100024.00;;;1.50
29423;BMP180;16399;51.686;8.684;2022-12-05T06:57:52;100028.00;;;1.40
29423;BMP180;16399;51.686;8.684;2022-12-05T07:00:55;100029.00;;;1.40
29423;BMP180;16399;51.686;8.684;2022-12-05T07:04:20;100028.00;;;1.30
29423;BMP180;16399;51.686;8.684;2022-12-05T07:07:25;100029.00;;;1.30
29423;BMP180;16399;51.686;8.684;2022-12-05T07:10:27;100027.00;;;1.30
29423;BMP180;16399;51.686;8.684;2022-12-05T07:13:30;100022.00;;;1.30
29423;BMP180;16399;51.686;8.684;2022-12-05T07:16:32;100024.00;;;1.30
29423;BMP180;16399;51.686;8.684;2022-12-05T07:19:35;100030.00;;;1.30
29423;BMP180;16399;51.686;8.684;2022-12-05T07:22:37;100032.00;;;1.30
29423;BMP180;16399;51.686;8.684;2022-12-05T07:25:40;100038.00;;;1.40
29423;BMP180;16399;51.686;8.684;2022-12-05T07:28:43;100029.00;;;1.40
29423;BMP180;16399;51.686;8.684;2022-12-05T07:31:45;100037.00;;;1.40
29423;BMP180;16399;51.686;8.684;2022-12-05T07:34:47;100042.00;;;1.40
29423;BMP180;16399;51.686;8.684;2022-12-05T07:37:50;100040.00;;;1.40
29423;BMP180;16399;51.686;8.684;2022-12-05T07:40:52;100040.00;;;1.30
29423;BMP180;16399;51.686;8.684;2022-12-05T07:43:56;100044.00;;;1.30
29423;BMP180;16399;51.686;8.684;2022-12-05T07:46:58;100048.00;;;1.30
29423;BMP180;16399;51.686;8.684;2022-12-05T07:50:01;100047.00;;;1.30
29423;BMP180;16399;51.686;8.684;2022-12-05T07:53:03;100050.00;;;1.30
29423;BMP180;16399;51.686;8.684;2022-12-05T07:56:07;100055.00;;;1.30
29423;BMP180;16399;51.686;8.684;2022-12-05T07:59:10;100053.00;;;1.30
29423;BMP180;16399;51.686;8.684;2022-12-05T08:02:12;100045.00;;;1.30
29423;BMP180;16399;51.686;8.684;2022-12-05T08:05:14;100039.00;;;1.30
29423;BMP180;16399;51.686;8.684;2022-12-05T08:08:17;100054.00;;;1.30
29423;BMP180;16399;51.686;8.684;2022-12-05T08:11:22;100054.00;;;1.30
29423;BMP180;16399;51.686;8.684;2022-12-05T08:14:24;100043.00;;;1.30
29423;BMP180;16399;51.686;8.684;2022-12-05T08:17:28;100058.00;;;1.30
29423;BMP180;16399;51.686;8.684;2022-12-05T08:20:32;100058.00;;;1.30
29423;BMP180;16399;51.686;8.684;2022-12-05T08:23:35;100060.00;;;1.30
29423;BMP180;16399;51.686;8.684;2022-12-05T08:26:38;100054.00;;;1.30
29423;BMP180;16399;51.686;8.684;2022-12-05T08:29:40;100053.00;;;1.30
29423;BMP180;16399;51.686;8.684;2022-12-05T08:32:42;100057.00;;;1.30
29423;BMP180;16399;51.686;8.684;2022-12-05T08:35:45;100060.00;;;1.30
29423;BMP180;16399;51.686;8.684;2022-12-05T08:38:47;100056.00;;;1.30
29423;BMP180;16399;51.686;8.684;2022-12-05T08:41:50;100059.00;;;1.40
29423;BMP180;16399;51.686;8.684;2022-12-05T08:44:52;100076.00;;;1.40
29423;BMP180;16399;51.686;8.684;2022-12-05T08:47:54;100075.00;;;1.40
29423;BMP180;16399;51.686;8.684;2022-12-05T08:50:57;100075.00;;;1.40
29423;BMP180;16399;51.686;8.684;2022-12-05T08:54:04;100087.00;;;1.40
29423;BMP180;16399;51.686;8.684;2022-12-05T08:57:06;100074.00;;;1.40
29423;BMP180;16399;51.686;8.684;2022-12-05T09:00:09;100078.00;;;1.40
29423;BMP180;16399;51.686;8.684;2022-12-05T09:03:11;100080.00;;;1.40
29423;BMP180;16399;51.686;8.684;2022-12-05T09:06:19;100074.00;;;1.40
29423;BMP180;16399;51.686;8.684;2022-12-05T09:09:22;100090.00;;;1.40
29423;BMP180;16399;51.686;8.684;2022-12-05T09:12:25;100085.00;;;1.40
29423;BMP180;16399;51.686;8.684;2022-12-05T09:15:27;100073.00;;;1.40
29423;BMP180;16399;51.686;8.684;2022-12-05T09:18:29;100090.00;;;1.40
29423;BMP180;16399;51.686;8.684;2022-12-05T09:21:32;100089.00;;;1.50
29423;BMP180;16399;51.686;8.684;2022-12-05T09:24:34;100089.00;;;1.50
29423;BMP180;16399;51.686;8.684;2022-12-05T09:27:37;100095.00;;;1.50
29423;BMP180;16399;51.686;8.684;2022-12-05T09:41:31;100090.00;;;1.50
29423;BMP180;16399;51.686;8.684;2022-12-05T09:48:09;100097.00;;;1.50
29423;BMP180;16399;51.686;8.684;2022-12-05T09:51:07;100091.00;;;1.50
29423;BMP180;16399;51.686;8.684;2022-12-05T09:54:11;100094.00;;;1.60
29423;BMP180;16399;51.686;8.684;2022-12-05T09:57:14;100086.00;;;1.60
29423;BMP180;16399;51.686;8.684;2022-12-05T10:00:17;100090.00;;;1.60
29423;BMP180;16399;51.686;8.684;2022-12-05T10:03:32;100093.00;;;1.60
29423;BMP180;16399;51.686;8.684;2022-12-05T10:10:20;100079.00;;;1.60
29423;BMP180;16399;51.686;8.684;2022-12-05T10:13:33;100095.00;;;1.70
29423;BMP180;16399;51.686;8.684;2022-12-05T10:16:52;100084.00;;;1.70
29423;BMP180;16399;51.686;8.684;2022-12-05T10:19:52;100081.00;;;1.70
29423;BMP180;16399;51.686;8.684;2022-12-05T10:22:58;100081.00;;;1.70
29423;BMP180;16399;51.686;8.684;2022-12-05T10:26:04;100082.00;;;1.70
29423;BMP180;16399;51.686;8.684;2022-12-05T10:29:40;100087.00;;;1.70
29423;BMP180;16399;51.686;8.684;2022-12-05T10:32:54;100082.00;;;1.70
29423;BMP180;16399;51.686;8.684;2022-12-05T10:35:57;100082.00;;;1.70
29423;BMP180;16399;51.686;8.684;2022-12-05T10:38:59;100080.00;;;1.70
29423;BMP180;16399;51.686;8.684;2022-12-05T10:42:02;100076.00;;;1.80
29423;BMP180;16399;51.686;8.684;2022-12-05T10:45:14;100084.00;;;1.80
29423;BMP180;16399;51.686;8.684;2022-12-05T10:48:18;100076.00;;;1.80
29423;BMP180;16399;51.686;8.684;2022-12-05T10:51:24;100064.00;;;1.70
29423;BMP180;16399;51.686;8.684;2022-12-05T10:54:28;100073.00;;;1.70
29423;BMP180;16399;51.686;8.684;2022-12-05T10:57:31;100063.00;;;1.70
29423;BMP180;16399;51.686;8.684;2022-12-05T11:00:34;100075.00;;;1.70
29423;BMP180;16399;51.686;8.684;2022-12-05T11:03:38;100076.00;;;1.60
29423;BMP180;16399;51.686;8.684;2022-12-05T11:07:04;100058.00;;;1.60
29423;BMP180;16399;51.686;8.684;2022-12-05T11:09:47;100065.00;;;1.60
29423;BMP180;16399;51.686;8.684;2022-12-05T11:12:49;100058.00;;;1.60
29423;BMP180;16399;51.686;8.684;2022-12-05T11:15:52;100059.00;;;1.60
29423;BMP180;16399;51.686;8.684;2022-12-05T11:18:54;100058.00;;;1.60
29423;BMP180;16399;51.686;8.684;2022-12-05T11:21:57;100058.00;;;1.60
29423;BMP180;16399;51.686;8.684;2022-12-05T11:25:00;100052.00;;;1.60
29423;BMP180;16399;51.686;8.684;2022-12-05T11:31:25;100047.00;;;1.60
29423;BMP180;16399;51.686;8.684;2022-12-05T11:34:39;100058.00;;;1.60
29423;BMP180;16399;51.686;8.684;2022-12-05T11:37:48;100060.00;;;1.60
29423;BMP180;16399;51.686;8.684;2022-12-05T11:44:41;100055.00;;;1.60
29423;BMP180;16399;51.686;8.684;2022-12-05T11:51:10;100044.00;;;1.60
29423;BMP180;16399;51.686;8.684;2022-12-05T12:07:42;100048.00;;;1.70
29423;BMP180;16399;51.686;8.684;2022-12-05T12:10:50;100049.00;;;1.70
29423;BMP180;16399;51.686;8.684;2022-12-05T12:17:13;100051.00;;;1.80
29423;BMP180;16399;51.686;8.684;2022-12-05T12:20:22;100051.00;;;1.80
29423;BMP180;16399;51.686;8.684;2022-12-05T12:33:51;100049.00;;;1.80
29423;BMP180;16399;51.686;8.684;2022-12-05T12:37:12;100043.00;;;1.80
29423;BMP180;16399;51.686;8.684;2022-12-05T12:40:49;100053.00;;;1.80
29423;BMP180;16399;51.686;8.684;2022-12-05T12:43:57;100048.00;;;1.70
29423;BMP180;16399;51.686;8.684;2022-12-05T12:46:58;100044.00;;;1.80
29423;BMP180;16399;51.686;8.684;2022-12-05T12:50:05;100042.00;;;1.80
29423;BMP180;16399;51.686;8.684;2022-12-05T12:53:24;100045.00;;;1.80
29423;BMP180;16399;51.686;8.684;2022-12-05T12:56:33;100050.00;;;1.80
29423;BMP180;16399;51.686;8.684;2022-12-05T13:00:00;100047.00;;;1.80
29423;BMP180;16399;51.686;8.684;2022-12-05T13:03:18;100058.00;;;1.80
29423;BMP180;16399;51.686;8.684;2022-12-05T13:12:49;100055.00;;;1.90
29423;BMP180;16399;51.686;8.684;2022-12-05T13:15:55;100057.00;;;1.90
29423;BMP180;16399;51.686;8.684;2022-12-05T13:18:58;100069.00;;;1.90
29423;BMP180;16399;51.686;8.684;2022-12-05T13:22:01;100064.00;;;1.90
29423;BMP180;16399;51.686;8.684;2022-12-05T13:25:04;100062.00;;;1.90
29423;BMP180;16399;51.686;8.684;2022-12-05T13:28:15;100067.00;;;1.90
29423;BMP180;16399;51.686;8.684;2022-12-05T13:31:12;100062.00;;;1.80
29423;BMP180;16399;51.686;8.684;2022-12-05T13:41:11;100059.00;;;1.80
29423;BMP180;16399;51.686;8.684;2022-12-05T13:44:37;100056.00;;;1.80
29423;BMP180;16399;51.686;8.684;2022-12-05T13:54:23;100066.00;;;1.70
29423;BMP180;16399;51.686;8.684;2022-12-05T14:00:44;100058.00;;;1.70
29423;BMP180;16399;51.686;8.684;2022-12-05T14:06:56;100062.00;;;1.70
29423;BMP180;16399;51.686;8.684;2022-12-05T14:09:59;100066.00;;;1.60
29423;BMP180;16399;51.686;8.684;2022-12-05T14:13:48;100061.00;;;1.60
29423;BMP180;16399;51.686;8.684;2022-12-05T14:19:44;100068.00;;;1.60
29423;BMP180;16399;51.686;8.684;2022-12-05T14:23:03;100075.00;;;1.60
29423;BMP180;16399;51.686;8.684;2022-12-05T14:32:42;100085.00;;;1.50
29423;BMP180;16399;51.686;8.684;2022-12-05T14:35:48;100084.00;;;1.50
29423;BMP180;16399;51.686;8.684;2022-12-05T14:38:52;100087.00;;;1.50
29423;BMP180;16399;51.686;8.684;2022-12-05T14:41:59;100087.00;;;1.50
29423;BMP180;16399;51.686;8.684;2022-12-05T14:45:21;100088.00;;;1.50
29423;BMP180;16399;51.686;8.684;2022-12-05T14:48:28;100084.00;;;1.50
29423;BMP180;16399;51.686;8.684;2022-12-05T14:54:37;100077.00;;;1.50
29423;BMP180;16399;51.686;8.684;2022-12-05T14:57:44;100090.00;;;1.50
29423;BMP180;16399;51.686;8.684;2022-12-05T15:00:58;100096.00;;;1.50
29423;BMP180;16399;51.686;8.684;2022-12-05T15:07:26;100096.00;;;1.50
29423;BMP180;16399;51.686;8.684;2022-12-05T15:10:40;100105.00;;;1.50
29423;BMP180;16399;51.686;8.684;2022-12-05T15:13:43;100094.00;;;1.50
29423;BMP180;16399;51.686;8.684;2022-12-05T15:16:46;100100.00;;;1.50
29423;BMP180;16399;51.686;8.684;2022-12-05T15:19:57;100094.00;;;1.50
29423;BMP180;16399;51.686;8.684;2022-12-05T15:22:55;100095.00;;;1.40
29423;BMP180;16399;51.686;8.684;2022-12-05T15:25:57;100091.00;;;1.40
29423;BMP180;16399;51.686;8.684;2022-12-05T15:29:09;100089.00;;;1.40
29423;BMP180;16399;51.686;8.684;2022-12-05T15:32:16;100096.00;;;1.40
29423;BMP180;16399;51.686;8.684;2022-12-05T15:35:21;100104.00;;;1.40
29423;BMP180;16399;51.686;8.684;2022-12-05T15:38:25;100112.00;;;1.40
29423;BMP180;16399;51.686;8.684;2022-12-05T15:41:29;100111.00;;;1.40
29423;BMP180;16399;51.686;8.684;2022-12-05T15:44:33;100109.00;;;1.40
29423;BMP180;16399;51.686;8.684;2022-12-05T15:47:35;100106.00;;;1.40
29423;BMP180;16399;51.686;8.684;2022-12-05T15:50:42;100106.00;;;1.40
29423;BMP180;16399;51.686;8.684;2022-12-05T15:54:06;100118.00;;;1.40
29423;BMP180;16399;51.686;8.684;2022-12-05T15:57:14;100115.00;;;1.40
29423;BMP180;16399;51.686;8.684;2022-12-05T16:00:18;100116.00;;;1.40
29423;BMP180;16399;51.686;8.684;2022-12-05T16:03:39;100116.00;;;1.40
29423;BMP180;16399;51.686;8.684;2022-12-05T16:06:41;100116.00;;;1.40
29423;BMP180;16399;51.686;8.684;2022-12-05T16:09:45;100105.00;;;1.40
29423;BMP180;16399;51.686;8.684;2022-12-05T16:12:49;100110.00;;;1.40
29423;BMP180;16399;51.686;8.684;2022-12-05T16:15:52;100118.00;;;1.50
29423;BMP180;16399;51.686;8.684;2022-12-05T16:18:58;100126.00;;;1.40
29423;BMP180;16399;51.686;8.684;2022-12-05T16:22:06;100122.00;;;1.50
29423;BMP180;16399;51.686;8.684;2022-12-05T16:25:17;100123.00;;;1.50
29423;BMP180;16399;51.686;8.684;2022-12-05T16:28:20;100114.00;;;1.40
29423;BMP180;16399;51.686;8.684;2022-12-05T16:31:23;100120.00;;;1.40
29423;BMP180;16399;51.686;8.684;2022-12-05T16:34:27;100122.00;;;1.40
29423;BMP180;16399;51.686;8.684;2022-12-05T16:37:30;100123.00;;;1.40
29423;BMP180;16399;51.686;8.684;2022-12-05T16:40:32;100138.00;;;1.40
29423;BMP180;16399;51.686;8.684;2022-12-05T16:46:42;100140.00;;;1.30
29423;BMP180;16399;51.686;8.684;2022-12-05T16:49:45;100128.00;;;1.30
29423;BMP180;16399;51.686;8.684;2022-12-05T16:52:48;100124.00;;;1.30
29423;BMP180;16399;51.686;8.684;2022-12-05T16:55:50;100140.00;;;1.30
29423;BMP180;16399;51.686;8.684;2022-12-05T16:58:53;100135.00;;;1.40
29423;BMP180;16399;51.686;8.684;2022-12-05T17:01:56;100126.00;;;1.40
29423;BMP180;16399;51.686;8.684;2022-12-05T17:05:01;100137.00;;;1.40
29423;BMP180;16399;51.686;8.684;2022-12-05T17:08:04;100136.00;;;1.40
29423;BMP180;16399;51.686;8.684;2022-12-05T17:11:09;100131.00;;;1.40
29423;BMP180;16399;51.686;8.684;2022-12-05T17:14:16;100127.00;;;1.50
29423;BMP180;16399;51.686;8.684;2022-12-05T17:17:19;100129.00;;;1.40
29423;BMP180;16399;51.686;8.684;2022-12-05T17:20:22;100127.00;;;1.40
29423;BMP180;16399;51.686;8.684;2022-12-05T17:23:24;100135.00;;;1.40
29423;BMP180;16399;51.686;8.684;2022-12-05T17:26:26;100136.00;;;1.40
29423;BMP180;16399;51.686;8.684;2022-12-05T17:29:28;100133.00;;;1.40
29423;BMP180;16399;51.686;8.684;2022-12-05T17:32:31;100135.00;;;1.40
29423;BMP180;16399;51.686;8.684;2022-12-05T17:35:33;100145.00;;;1.50
29423;BMP180;16399;51.686;8.684;2022-12-05T17:38:36;100144.00;;;1.50
29423;BMP180;16399;51.686;8.684;2022-12-05T17:41:38;100137.00;;;1.50
29423;BMP180;16399;51.686;8.684;2022-12-05T17:44:40;100134.00;;;1.50
29423;BMP180;16399;51.686;8.684;2022-12-05T17:47:43;100133.00;;;1.50
29423;BMP180;16399;51.686;8.684;2022-12-05T17:50:47;100138.00;;;1.50
29423;BMP180;16399;51.686;8.684;2022-12-05T17:53:50;100131.00;;;1.50
29423;BMP180;16399;51.686;8.684;2022-12-05T17:56:53;100132.00;;;1.50
29423;BMP180;16399;51.686;8.684;2022-12-05T17:59:55;100132.00;;;1.50
29423;BMP180;16399;51.686;8.684;2022-12-05T18:02:57;100136.00;;;1.50
29423;BMP180;16399;51.686;8.684;2022-12-05T18:06:00;100144.00;;;1.50
29423;BMP180;16399;51.686;8.684;2022-12-05T18:09:04;100145.00;;;1.40
29423;BMP180;16399;51.686;8.684;2022-12-05T18:12:07;100144.00;;;1.40
29423;BMP180;16399;51.686;8.684;2022-12-05T18:15:10;100158.00;;;1.40
29423;BMP180;16399;51.686;8.684;2022-12-05T18:18:14;100158.00;;;1.40
29423;BMP180;16399;51.686;8.684;2022-12-05T18:21:18;100159.00;;;1.50
29423;BMP180;16399;51.686;8.684;2022-12-05T18:24:21;100163.00;;;1.50
29423;BMP180;16399;51.686;8.684;2022-12-05T18:27:23;100158.00;;;1.50
29423;BMP180;16399;51.686;8.684;2022-12-05T18:30:25;100160.00;;;1.50
29423;BMP180;16399;51.686;8.684;2022-12-05T18:33:28;100162.00;;;1.50
29423;BMP180;16399;51.686;8.684;2022-12-05T18:36:30;100170.00;;;1.50
29423;BMP180;16399;51.686;8.684;2022-12-05T18:39:33;100166.00;;;1.40
29423;BMP180;16399;51.686;8.684;2022-12-05T18:42:35;100167.00;;;1.40
29423;BMP180;16399;51.686;8.684;2022-12-05T18:45:37;100164.00;;;1.40
29423;BMP180;16399;51.686;8.684;2022-12-05T18:48:40;100171.00;;;1.40
29423;BMP180;16399;51.686;8.684;2022-12-05T18:51:42;100180.00;;;1.40
29423;BMP180;16399;51.686;8.684;2022-12-05T18:54:45;100178.00;;;1.40
29423;BMP180;16399;51.686;8.684;2022-12-05T18:57:47;100176.00;;;1.40
29423;BMP180;16399;51.686;8.684;2022-12-05T19:00:49;100175.00;;;1.40
29423;BMP180;16399;51.686;8.684;2022-12-05T19:03:52;100180.00;;;1.40
29423;BMP180;16399;51.686;8.684;2022-12-05T19:06:57;100183.00;;;1.40
29423;BMP180;16399;51.686;8.684;2022-12-05T19:09:59;100189.00;;;1.40
29423;BMP180;16399;51.686;8.684;2022-12-05T19:13:02;100174.00;;;1.50
29423;BMP180;16399;51.686;8.684;2022-12-05T19:16:06;100182.00;;;1.50
29423;BMP180;16399;51.686;8.684;2022-12-05T19:19:12;100176.00;;;1.50
29423;BMP180;16399;51.686;8.684;2022-12-05T19:22:14;100178.00;;;1.40
29423;BMP180;16399;51.686;8.684;2022-12-05T19:25:16;100177.00;;;1.50
29423;BMP180;16399;51.686;8.684;2022-12-05T19:28:18;100184.00;;;1.50
29423;BMP180;16399;51.686;8.684;2022-12-05T19:31:22;100186.00;;;1.50
29423;BMP180;16399;51.686;8.684;2022-12-05T19:34:25;100189.00;;;1.50
29423;BMP180;16399;51.686;8.684;2022-12-05T19:37:27;100182.00;;;1.50
29423;BMP180;16399;51.686;8.684;2022-12-05T19:40:30;100188.00;;;1.50
29423;BMP180;16399;51.686;8.684;2022-12-05T19:43:34;100191.00;;;1.50
29423;BMP180;16399;51.686;8.684;2022-12-05T19:46:38;100174.00;;;1.50
29423;BMP180;16399;51.686;8.684;2022-12-05T19:49:40;100176.00;;;1.50
29423;BMP180;16399;51.686;8.684;2022-12-05T19:52:42;100176.00;;;1.50
29423;BMP180;16399;51.686;8.684;2022-12-05T19:55:45;100189.00;;;1.50
29423;BMP180;16399;51.686;8.684;2022-12-05T19:58:48;100191.00;;;1.50
29423;BMP180;16399;51.686;8.684;2022-12-05T20:01:50;100184.00;;;1.50
29423;BMP180;16399;51.686;8.684;2022-12-05T20:04:53;100188.00;;;1.50
29423;BMP180;16399;51.686;8.684;2022-12-05T20:07:55;100184.00;;;1.50